createdAt,value
2023-02-06T00:00:43.842Z,1020.07
2023-02-06T00:01:43.789Z,1020.09
2023-02-06T00:02:43.935Z,1020.06
2023-02-06T00:03:43.872Z,1020.05
2023-02-06T00:04:43.857Z,1020.06
2023-02-06T00:05:43.863Z,1020.08
2023-02-06T00:06:43.842Z,1020.15
2023-02-06T00:07:43.823Z,1020.17
2023-02-06T00:08:43.726Z,1020.13
2023-02-06T00:09:43.712Z,1020.12
2023-02-06T00:10:43.686Z,1020.10
2023-02-06T00:11:43.698Z,1020.07
2023-02-06T00:12:43.700Z,1020.03
2023-02-06T00:13:43.690Z,1020.03
2023-02-06T00:14:43.646Z,1020.01
2023-02-06T00:15:43.641Z,1019.98
2023-02-06T00:16:43.658Z,1020.00
2023-02-06T00:17:43.722Z,1020.02
2023-02-06T00:18:43.655Z,1020.04
2023-02-06T00:19:43.659Z,1020.02
2023-02-06T00:20:43.580Z,1020.03
2023-02-06T00:21:43.566Z,1020.10
2023-02-06T00:22:43.729Z,1020.09
2023-02-06T00:23:43.607Z,1020.11
2023-02-06T00:24:43.559Z,1020.07
2023-02-06T00:25:43.648Z,1020.11
2023-02-06T00:26:43.535Z,1020.09
2023-02-06T00:27:43.563Z,1020.12
2023-02-06T00:28:43.496Z,1020.13
2023-02-06T00:29:43.497Z,1020.16
2023-02-06T00:30:43.557Z,1020.16
2023-02-06T00:31:43.514Z,1020.18
2023-02-06T00:32:43.506Z,1020.17
2023-02-06T00:33:43.438Z,1020.13
2023-02-06T00:34:43.499Z,1020.15
2023-02-06T00:35:43.447Z,1020.17
2023-02-06T00:36:43.488Z,1020.22
2023-02-06T00:37:43.448Z,1020.24
2023-02-06T00:38:43.848Z,1020.24
2023-02-06T00:39:43.514Z,1020.26
2023-02-06T00:40:43.373Z,1020.26
2023-02-06T00:41:43.347Z,1020.27
2023-02-06T00:42:43.357Z,1020.28
2023-02-06T00:43:43.331Z,1020.23
2023-02-06T00:44:43.312Z,1020.25
2023-02-06T00:45:43.302Z,1020.23
2023-02-06T00:46:43.387Z,1020.19
2023-02-06T00:47:43.281Z,1020.23
2023-02-06T00:48:43.316Z,1020.19
2023-02-06T00:49:43.277Z,1020.19
2023-02-06T00:50:43.247Z,1020.16
2023-02-06T00:51:43.262Z,1020.21
2023-02-06T00:52:43.267Z,1020.20
2023-02-06T00:53:43.223Z,1020.20
2023-02-06T00:54:43.208Z,1020.21
2023-02-06T00:55:43.202Z,1020.22
2023-02-06T00:56:43.183Z,1020.25
2023-02-06T00:57:43.192Z,1020.19
2023-02-06T00:58:43.169Z,1020.15
2023-02-06T00:59:43.152Z,1020.14
2023-02-06T01:00:43.192Z,1020.11
2023-02-06T01:01:43.148Z,1020.07
2023-02-06T01:02:43.393Z,1020.07
2023-02-06T01:03:43.111Z,1020.13
2023-02-06T01:04:43.133Z,1020.14
2023-02-06T01:05:43.080Z,1020.14
2023-02-06T01:06:43.071Z,1020.14
2023-02-06T01:07:43.057Z,1020.16
2023-02-06T01:08:43.060Z,1020.20
2023-02-06T01:09:43.054Z,1020.22
2023-02-06T01:10:43.024Z,1020.24
2023-02-06T01:11:43.035Z,1020.15
2023-02-06T01:12:43.007Z,1020.24
2023-02-06T01:13:42.989Z,1020.20
2023-02-06T01:14:42.986Z,1020.23
2023-02-06T01:15:42.989Z,1020.20
2023-02-06T01:16:42.994Z,1020.21
2023-02-06T01:17:42.951Z,1020.19
2023-02-06T01:18:42.946Z,1020.21
2023-02-06T01:19:42.924Z,1020.18
2023-02-06T01:20:42.938Z,1020.18
2023-02-06T01:21:42.903Z,1020.21
2023-02-06T01:22:43.001Z,1020.19
2023-02-06T01:23:42.898Z,1020.27
2023-02-06T01:24:42.869Z,1020.19
2023-02-06T01:25:42.871Z,1020.20
2023-02-06T01:26:42.867Z,1020.16
2023-02-06T01:27:42.946Z,1020.18
2023-02-06T01:28:42.852Z,1020.17
2023-02-06T01:29:42.824Z,1020.17
2023-02-06T01:30:42.860Z,1020.19
2023-02-06T01:31:42.837Z,1020.15
2023-02-06T01:32:42.802Z,1020.15
2023-02-06T01:33:42.779Z,1020.16
2023-02-06T01:34:42.782Z,1020.22
2023-02-06T01:35:42.756Z,1020.20
2023-02-06T01:36:42.756Z,1020.21
2023-02-06T01:37:42.743Z,1020.24
2023-02-06T01:38:42.716Z,1020.19
2023-02-06T01:39:42.716Z,1020.23
2023-02-06T01:40:42.689Z,1020.25
2023-02-06T01:41:42.702Z,1020.24
2023-02-06T01:42:42.671Z,1020.23
2023-02-06T01:43:42.680Z,1020.23
2023-02-06T01:44:42.649Z,1020.22
2023-02-06T01:45:42.637Z,1020.21
2023-02-06T01:46:42.678Z,1020.24
2023-02-06T01:47:42.612Z,1020.19
2023-02-06T01:48:42.633Z,1020.20
2023-02-06T01:49:42.592Z,1020.22
2023-02-06T01:50:42.598Z,1020.22
2023-02-06T01:51:42.569Z,1020.23
2023-02-06T01:52:42.588Z,1020.28
2023-02-06T01:53:42.542Z,1020.25
2023-02-06T01:54:42.555Z,1020.23
2023-02-06T01:55:42.526Z,1020.25
2023-02-06T01:56:42.516Z,1020.18
2023-02-06T01:57:42.500Z,1020.20
2023-02-06T01:58:42.515Z,1020.19
2023-02-06T01:59:42.483Z,1020.18
2023-02-06T02:00:42.508Z,1020.22
2023-02-06T02:01:42.499Z,1020.18
2023-02-06T02:02:42.450Z,1020.20
2023-02-06T02:03:42.462Z,1020.15
2023-02-06T02:04:42.426Z,1020.11
2023-02-06T02:05:42.419Z,1020.17
2023-02-06T02:06:42.412Z,1020.15
2023-02-06T02:07:42.423Z,1020.12
2023-02-06T02:08:42.407Z,1020.15
2023-02-06T02:09:42.393Z,1020.16
2023-02-06T02:10:42.362Z,1020.19
2023-02-06T02:11:42.360Z,1020.21
2023-02-06T02:12:42.365Z,1020.21
2023-02-06T02:13:42.329Z,1020.22
2023-02-06T02:14:42.321Z,1020.26
2023-02-06T02:15:42.314Z,1020.24
2023-02-06T02:16:42.321Z,1020.24
2023-02-06T02:17:42.290Z,1020.22
2023-02-06T02:18:42.272Z,1020.20
2023-02-06T02:19:42.271Z,1020.20
2023-02-06T02:20:42.256Z,1020.23
2023-02-06T02:21:42.266Z,1020.29
2023-02-06T02:22:42.241Z,1020.32
2023-02-06T02:23:42.241Z,1020.31
2023-02-06T02:24:42.238Z,1020.28
2023-02-06T02:25:42.225Z,1020.25
2023-02-06T02:26:42.266Z,1020.30
2023-02-06T02:27:42.181Z,1020.24
2023-02-06T02:28:42.202Z,1020.23
2023-02-06T02:29:42.170Z,1020.20
2023-02-06T02:30:42.198Z,1020.20
2023-02-06T02:31:42.225Z,1020.19
2023-02-06T02:32:42.144Z,1020.21
2023-02-06T02:33:42.157Z,1020.21
2023-02-06T02:34:42.125Z,1020.23
2023-02-06T02:35:42.091Z,1020.18
2023-02-06T02:36:42.083Z,1020.16
2023-02-06T02:37:42.070Z,1020.19
2023-02-06T02:38:42.080Z,1020.20
2023-02-06T02:39:42.054Z,1020.22
2023-02-06T02:40:42.083Z,1020.23
2023-02-06T02:41:42.029Z,1020.17
2023-02-06T02:42:42.016Z,1020.17
2023-02-06T02:43:42.031Z,1020.10
2023-02-06T02:44:42.026Z,1020.12
2023-02-06T02:45:42.057Z,1020.10
2023-02-06T02:46:41.981Z,1020.10
2023-02-06T02:47:41.962Z,1020.14
2023-02-06T02:48:41.973Z,1020.12
2023-02-06T02:49:41.939Z,1020.06
2023-02-06T02:50:41.925Z,1020.10
2023-02-06T02:51:41.919Z,1020.11
2023-02-06T02:52:41.900Z,1020.08
2023-02-06T02:53:41.918Z,1020.12
2023-02-06T02:54:41.888Z,1020.12
2023-02-06T02:55:41.876Z,1020.14
2023-02-06T02:56:41.894Z,1020.10
2023-02-06T02:57:41.894Z,1020.19
2023-02-06T02:58:41.858Z,1020.16
2023-02-06T02:59:41.827Z,1020.11
2023-02-06T03:00:41.841Z,1020.10
2023-02-06T03:01:41.801Z,1020.11
2023-02-06T03:02:41.809Z,1020.13
2023-02-06T03:03:41.809Z,1020.09
2023-02-06T03:04:41.769Z,1020.13
2023-02-06T03:05:41.768Z,1020.10
2023-02-06T03:06:41.750Z,1020.10
2023-02-06T03:07:41.746Z,1020.06
2023-02-06T03:08:41.753Z,1020.09
2023-02-06T03:09:42.890Z,1020.13
2023-02-06T03:10:41.702Z,1020.15
2023-02-06T03:11:41.697Z,1020.17
2023-02-06T03:12:41.701Z,1020.15
2023-02-06T03:13:41.692Z,1020.15
2023-02-06T03:14:41.662Z,1020.08
2023-02-06T03:15:41.657Z,1020.07
2023-02-06T03:16:41.723Z,1020.08
2023-02-06T03:17:41.640Z,1020.09
2023-02-06T03:18:41.678Z,1020.03
2023-02-06T03:19:41.620Z,1020.04
2023-02-06T03:20:41.614Z,1019.99
2023-02-06T03:21:41.582Z,1019.99
2023-02-06T03:22:41.570Z,1019.99
2023-02-06T03:23:41.565Z,1019.98
2023-02-06T03:24:41.551Z,1019.98
2023-02-06T03:25:41.556Z,1019.98
2023-02-06T03:26:41.533Z,1019.96
2023-02-06T03:27:41.518Z,1019.96
2023-02-06T03:28:41.551Z,1019.93
2023-02-06T03:29:41.507Z,1020.03
2023-02-06T03:30:41.546Z,1019.96
2023-02-06T03:31:41.525Z,1019.99
2023-02-06T03:32:41.473Z,1020.02
2023-02-06T03:33:41.453Z,1020.02
2023-02-06T03:34:41.441Z,1020.02
2023-02-06T03:35:41.451Z,1020.02
2023-02-06T03:36:41.438Z,1020.04
2023-02-06T03:37:41.417Z,1020.12
2023-02-06T03:38:41.419Z,1020.05
2023-02-06T03:39:41.391Z,1020.07
2023-02-06T03:40:41.402Z,1020.10
2023-02-06T03:41:41.378Z,1020.08
2023-02-06T03:42:41.360Z,1020.18
2023-02-06T03:43:41.367Z,1020.19
2023-02-06T03:44:41.399Z,1020.16
2023-02-06T03:45:41.375Z,1020.19
2023-02-06T03:46:41.307Z,1020.14
2023-02-06T03:47:41.322Z,1020.09
2023-02-06T03:48:41.284Z,1020.11
2023-02-06T03:49:41.283Z,1020.09
2023-02-06T03:50:41.263Z,1020.08
2023-02-06T03:51:41.259Z,1020.10
2023-02-06T03:52:41.272Z,1020.07
2023-02-06T03:53:41.242Z,1020.07
2023-02-06T03:54:41.227Z,1020.06
2023-02-06T03:55:41.231Z,1020.10
2023-02-06T03:56:41.246Z,1020.07
2023-02-06T03:57:41.190Z,1020.04
2023-02-06T03:58:41.188Z,1020.06
2023-02-06T03:59:41.168Z,1020.02
2023-02-06T04:00:41.184Z,1020.04
2023-02-06T04:01:41.184Z,1020.05
2023-02-06T04:02:41.200Z,1019.99
2023-02-06T04:03:41.124Z,1020.00
2023-02-06T04:04:41.110Z,1019.99
2023-02-06T04:05:41.114Z,1019.90
2023-02-06T04:06:41.119Z,1019.99
2023-02-06T04:07:41.103Z,1019.95
2023-02-06T04:08:41.092Z,1019.96
2023-02-06T04:09:41.061Z,1019.96
2023-02-06T04:10:41.080Z,1019.97
2023-02-06T04:11:41.056Z,1019.94
2023-02-06T04:12:41.058Z,1019.95
2023-02-06T04:13:41.016Z,1019.95
2023-02-06T04:14:41.002Z,1019.92
2023-02-06T04:15:41.026Z,1019.91
2023-02-06T04:16:41.010Z,1019.94
2023-02-06T04:17:57.544Z,1019.91
2023-02-06T04:18:41.986Z,1019.94
2023-02-06T04:19:40.950Z,1019.94
2023-02-06T04:20:41.058Z,1019.94
2023-02-06T04:21:40.927Z,1019.98
2023-02-06T04:22:40.946Z,1019.98
2023-02-06T04:23:40.924Z,1019.93
2023-02-06T04:24:40.895Z,1019.95
2023-02-06T04:25:40.887Z,1019.95
2023-02-06T04:26:40.874Z,1019.96
2023-02-06T04:27:40.890Z,1020.02
2023-02-06T04:28:40.849Z,1019.98
2023-02-06T04:29:40.850Z,1019.99
2023-02-06T04:30:40.970Z,1020.02
2023-02-06T04:31:40.829Z,1020.03
2023-02-06T04:32:40.831Z,1020.02
2023-02-06T04:33:40.824Z,1020.01
2023-02-06T04:34:40.788Z,1020.02
2023-02-06T04:35:40.787Z,1019.97
2023-02-06T04:36:40.763Z,1019.96
2023-02-06T04:37:40.764Z,1019.92
2023-02-06T04:38:40.761Z,1019.98
2023-02-06T04:39:40.735Z,1019.91
2023-02-06T04:40:40.740Z,1019.93
2023-02-06T04:41:40.714Z,1019.91
2023-02-06T04:42:40.698Z,1019.93
2023-02-06T04:43:40.741Z,1019.89
2023-02-06T04:44:40.679Z,1019.87
2023-02-06T04:45:40.667Z,1019.87
2023-02-06T04:46:40.657Z,1019.87
2023-02-06T04:47:40.659Z,1019.84
2023-02-06T04:48:40.689Z,1019.89
2023-02-06T04:49:40.615Z,1019.84
2023-02-06T04:50:40.611Z,1019.82
2023-02-06T04:51:40.608Z,1019.81
2023-02-06T04:52:40.596Z,1019.77
2023-02-06T04:53:40.611Z,1019.82
2023-02-06T04:54:40.569Z,1019.84
2023-02-06T04:55:40.560Z,1019.87
2023-02-06T04:56:40.543Z,1019.89
2023-02-06T04:57:40.535Z,1019.83
2023-02-06T04:58:40.552Z,1019.88
2023-02-06T04:59:40.517Z,1019.92
2023-02-06T05:00:40.498Z,1019.91
2023-02-06T05:01:40.558Z,1019.86
2023-02-06T05:02:40.580Z,1019.91
2023-02-06T05:03:40.474Z,1019.92
2023-02-06T05:04:40.474Z,1019.90
2023-02-06T05:05:40.455Z,1019.87
2023-02-06T05:06:40.431Z,1019.91
2023-02-06T05:07:40.430Z,1019.86
2023-02-06T05:08:40.435Z,1019.90
2023-02-06T05:09:40.419Z,1019.84
2023-02-06T05:10:40.412Z,1019.91
2023-02-06T05:11:40.380Z,1019.91
2023-02-06T05:12:40.407Z,1019.88
2023-02-06T05:13:40.351Z,1019.91
2023-02-06T05:14:40.345Z,1019.91
2023-02-06T05:15:40.351Z,1019.93
2023-02-06T05:16:40.332Z,1019.93
2023-02-06T05:17:40.330Z,1019.95
2023-02-06T05:18:40.323Z,1019.99
2023-02-06T05:19:40.290Z,1019.97
2023-02-06T05:20:40.343Z,1019.95
2023-02-06T05:21:40.287Z,1019.99
2023-02-06T05:22:40.248Z,1020.00
2023-02-06T05:23:40.243Z,1020.02
2023-02-06T05:24:40.234Z,1020.04
2023-02-06T05:25:42.216Z,1020.03
2023-02-06T05:26:40.213Z,1020.05
2023-02-06T05:27:40.374Z,1020.02
2023-02-06T05:28:40.185Z,1020.04
2023-02-06T05:29:40.175Z,1020.06
2023-02-06T05:30:40.213Z,1020.07
2023-02-06T05:31:40.276Z,1020.11
2023-02-06T05:32:40.162Z,1020.14
2023-02-06T05:33:40.159Z,1020.11
2023-02-06T05:34:40.116Z,1020.14
2023-02-06T05:35:40.132Z,1020.12
2023-02-06T05:36:40.126Z,1020.13
2023-02-06T05:37:40.104Z,1020.15
2023-02-06T05:38:40.085Z,1020.13
2023-02-06T05:39:40.078Z,1020.19
2023-02-06T05:40:40.059Z,1020.24
2023-02-06T05:41:40.076Z,1020.29
2023-02-06T05:42:40.048Z,1020.32
2023-02-06T05:43:40.038Z,1020.31
2023-02-06T05:44:40.026Z,1020.28
2023-02-06T05:45:40.287Z,1020.30
2023-02-06T05:46:40.084Z,1020.34
2023-02-06T05:47:40.007Z,1020.31
2023-02-06T05:48:40.001Z,1020.28
2023-02-06T05:49:39.995Z,1020.34
2023-02-06T05:50:41.261Z,1020.31
2023-02-06T05:51:39.936Z,1020.36
2023-02-06T05:52:39.957Z,1020.36
2023-02-06T05:53:39.911Z,1020.31
2023-02-06T05:54:39.930Z,1020.30
2023-02-06T05:55:39.907Z,1020.29
2023-02-06T05:56:39.887Z,1020.29
2023-02-06T05:57:39.911Z,1020.22
2023-02-06T05:58:39.879Z,1020.25
2023-02-06T05:59:39.864Z,1020.24
2023-02-06T06:00:39.847Z,1020.26
2023-02-06T06:01:39.829Z,1020.29
2023-02-06T06:02:39.873Z,1020.27
2023-02-06T06:03:39.893Z,1020.31
2023-02-06T06:04:39.850Z,1020.24
2023-02-06T06:05:39.787Z,1020.23
2023-02-06T06:06:39.774Z,1020.21
2023-02-06T06:07:39.793Z,1020.27
2023-02-06T06:08:39.770Z,1020.20
2023-02-06T06:09:39.737Z,1020.24
2023-02-06T06:10:39.740Z,1020.22
2023-02-06T06:11:39.751Z,1020.26
2023-02-06T06:12:39.709Z,1020.26
2023-02-06T06:13:39.753Z,1020.27
2023-02-06T06:14:39.711Z,1020.31
2023-02-06T06:15:39.675Z,1020.33
2023-02-06T06:16:39.716Z,1020.32
2023-02-06T06:17:39.651Z,1020.33
2023-02-06T06:18:39.648Z,1020.30
2023-02-06T06:19:39.655Z,1020.29
2023-02-06T06:20:39.617Z,1020.30
2023-02-06T06:21:39.642Z,1020.29
2023-02-06T06:22:39.607Z,1020.26
2023-02-06T06:23:39.599Z,1020.23
2023-02-06T06:24:39.616Z,1020.22
2023-02-06T06:25:39.572Z,1020.22
2023-02-06T06:26:39.556Z,1020.23
2023-02-06T06:27:39.550Z,1020.25
2023-02-06T06:28:39.550Z,1020.25
2023-02-06T06:29:39.581Z,1020.27
2023-02-06T06:30:39.602Z,1020.26
2023-02-06T06:31:39.625Z,1020.29
2023-02-06T06:32:39.497Z,1020.23
2023-02-06T06:33:39.491Z,1020.28
2023-02-06T06:34:39.464Z,1020.31
2023-02-06T06:35:39.476Z,1020.30
2023-02-06T06:36:39.447Z,1020.31
2023-02-06T06:37:39.436Z,1020.33
2023-02-06T06:38:39.423Z,1020.28
2023-02-06T06:39:39.410Z,1020.34
2023-02-06T06:40:39.454Z,1020.35
2023-02-06T06:41:39.392Z,1020.36
2023-02-06T06:42:39.380Z,1020.36
2023-02-06T06:43:39.382Z,1020.37
2023-02-06T06:44:39.394Z,1020.43
2023-02-06T06:45:39.745Z,1020.41
2023-02-06T06:46:39.857Z,1020.40
2023-02-06T06:47:39.357Z,1020.42
2023-02-06T06:48:39.323Z,1020.40
2023-02-06T06:49:39.302Z,1020.44
2023-02-06T06:50:39.296Z,1020.45
2023-02-06T06:51:39.280Z,1020.49
2023-02-06T06:52:39.286Z,1020.45
2023-02-06T06:53:39.275Z,1020.45
2023-02-06T06:54:39.251Z,1020.49
2023-02-06T06:55:39.243Z,1020.49
2023-02-06T06:56:39.288Z,1020.54
2023-02-06T06:57:39.241Z,1020.53
2023-02-06T06:58:39.216Z,1020.53
2023-02-06T06:59:39.193Z,1020.53
2023-02-06T07:00:39.523Z,1020.52
2023-02-06T07:01:39.172Z,1020.53
2023-02-06T07:02:39.224Z,1020.50
2023-02-06T07:03:39.148Z,1020.48
2023-02-06T07:04:39.154Z,1020.49
2023-02-06T07:05:39.133Z,1020.52
2023-02-06T07:06:39.124Z,1020.54
2023-02-06T07:07:39.198Z,1020.55
2023-02-06T07:08:39.125Z,1020.59
2023-02-06T07:09:39.114Z,1020.56
2023-02-06T07:10:39.093Z,1020.58
2023-02-06T07:11:39.060Z,1020.62
2023-02-06T07:12:39.080Z,1020.58
2023-02-06T07:13:39.062Z,1020.54
2023-02-06T07:14:39.031Z,1020.57
2023-02-06T07:15:39.018Z,1020.56
2023-02-06T07:16:39.043Z,1020.55
2023-02-06T07:17:39.029Z,1020.54
2023-02-06T07:18:39.011Z,1020.52
2023-02-06T07:19:38.997Z,1020.46
2023-02-06T07:20:38.963Z,1020.44
2023-02-06T07:21:38.956Z,1020.47
2023-02-06T07:22:38.995Z,1020.48
2023-02-06T07:23:38.949Z,1020.55
2023-02-06T07:24:38.915Z,1020.52
2023-02-06T07:25:38.901Z,1020.51
2023-02-06T07:26:38.896Z,1020.54
2023-02-06T07:27:38.889Z,1020.55
2023-02-06T07:28:38.937Z,1020.52
2023-02-06T07:29:38.880Z,1020.48
2023-02-06T07:30:38.929Z,1020.47
2023-02-06T07:31:38.976Z,1020.47
2023-02-06T07:32:38.907Z,1020.50
2023-02-06T07:33:38.834Z,1020.51
2023-02-06T07:34:38.810Z,1020.50
2023-02-06T07:35:38.927Z,1020.53
2023-02-06T07:36:38.791Z,1020.52
2023-02-06T07:37:38.795Z,1020.49
2023-02-06T07:38:38.761Z,1020.48
2023-02-06T07:39:38.750Z,1020.44
2023-02-06T07:40:45.133Z,1020.43
2023-02-06T07:41:39.730Z,1020.40
2023-02-06T07:42:38.718Z,1020.42
2023-02-06T07:43:38.711Z,1020.45
2023-02-06T07:44:38.717Z,1020.39
2023-02-06T07:45:39.159Z,1020.44
2023-02-06T07:46:38.693Z,1020.44
2023-02-06T07:47:38.663Z,1020.41
2023-02-06T07:48:38.649Z,1020.45
2023-02-06T07:49:38.663Z,1020.43
2023-02-06T07:50:38.637Z,1020.48
2023-02-06T07:51:38.651Z,1020.58
2023-02-06T07:52:38.641Z,1020.55
2023-02-06T07:53:38.627Z,1020.55
2023-02-06T07:54:38.592Z,1020.52
2023-02-06T07:55:38.913Z,1020.55
2023-02-06T07:56:38.599Z,1020.57
2023-02-06T07:57:38.551Z,1020.58
2023-02-06T07:58:38.542Z,1020.55
2023-02-06T07:59:38.559Z,1020.55
2023-02-06T08:00:38.544Z,1020.57
2023-02-06T08:01:38.531Z,1020.56
2023-02-06T08:02:38.516Z,1020.59
2023-02-06T08:03:38.537Z,1020.60
2023-02-06T08:04:38.603Z,1020.58
2023-02-06T08:05:38.755Z,1020.64
2023-02-06T08:06:38.500Z,1020.58
2023-02-06T08:07:38.499Z,1020.57
2023-02-06T08:08:38.444Z,1020.55
2023-02-06T08:09:38.420Z,1020.54
2023-02-06T08:10:38.420Z,1020.57
2023-02-06T08:11:38.429Z,1020.60
2023-02-06T08:12:38.397Z,1020.64
2023-02-06T08:13:38.374Z,1020.62
2023-02-06T08:14:38.379Z,1020.59
2023-02-06T08:15:38.625Z,1020.61
2023-02-06T08:16:38.489Z,1020.62
2023-02-06T08:17:38.335Z,1020.60
2023-02-06T08:18:38.348Z,1020.55
2023-02-06T08:19:38.311Z,1020.64
2023-02-06T08:20:38.325Z,1020.61
2023-02-06T08:21:38.295Z,1020.59
2023-02-06T08:22:38.293Z,1020.63
2023-02-06T08:23:38.271Z,1020.67
2023-02-06T08:24:38.276Z,1020.65
2023-02-06T08:25:38.645Z,1020.66
2023-02-06T08:26:38.236Z,1020.66
2023-02-06T08:27:38.223Z,1020.61
2023-02-06T08:28:38.245Z,1020.56
2023-02-06T08:29:38.204Z,1020.57
2023-02-06T08:30:38.276Z,1020.54
2023-02-06T08:31:38.260Z,1020.49
2023-02-06T08:32:38.195Z,1020.48
2023-02-06T08:33:38.172Z,1020.53
2023-02-06T08:34:38.145Z,1020.47
2023-02-06T08:35:38.222Z,1020.44
2023-02-06T08:36:38.117Z,1020.40
2023-02-06T08:37:38.106Z,1020.45
2023-02-06T08:38:38.122Z,1020.39
2023-02-06T08:39:38.169Z,1020.36
2023-02-06T08:40:38.089Z,1020.35
2023-02-06T08:41:38.091Z,1020.36
2023-02-06T08:42:38.098Z,1020.38
2023-02-06T08:43:38.046Z,1020.39
2023-02-06T08:44:38.033Z,1020.40
2023-02-06T08:45:38.161Z,1020.44
2023-02-06T08:46:38.044Z,1020.43
2023-02-06T08:47:38.005Z,1020.43
2023-02-06T08:48:38.012Z,1020.47
2023-02-06T08:49:38.002Z,1020.50
2023-02-06T08:50:38.182Z,1020.47
2023-02-06T08:51:37.975Z,1020.44
2023-02-06T08:52:37.951Z,1020.44
2023-02-06T08:53:37.931Z,1020.48
2023-02-06T08:54:38.994Z,1020.52
2023-02-06T08:55:38.268Z,1020.52
2023-02-06T08:56:37.920Z,1020.45
2023-02-06T08:57:37.893Z,1020.44
2023-02-06T08:58:37.886Z,1020.48
2023-02-06T08:59:37.871Z,1020.45
2023-02-06T09:00:37.892Z,1020.47
2023-02-06T09:01:37.875Z,1020.44
2023-02-06T09:02:37.964Z,1020.49
2023-02-06T09:03:37.860Z,1020.51
2023-02-06T09:04:37.914Z,1020.43
2023-02-06T09:05:38.039Z,1020.44
2023-02-06T09:06:37.797Z,1020.40
2023-02-06T09:07:37.783Z,1020.34
2023-02-06T09:08:37.807Z,1020.34
2023-02-06T09:09:37.790Z,1020.33
2023-02-06T09:10:37.754Z,1020.37
2023-02-06T09:11:37.744Z,1020.38
2023-02-06T09:12:37.727Z,1020.38
2023-02-06T09:13:37.724Z,1020.45
2023-02-06T09:14:37.735Z,1020.34
2023-02-06T09:15:38.178Z,1020.33
2023-02-06T09:16:37.724Z,1020.34
2023-02-06T09:17:37.716Z,1020.28
2023-02-06T09:18:37.691Z,1020.22
2023-02-06T09:19:37.666Z,1020.25
2023-02-06T09:20:37.658Z,1020.24
2023-02-06T09:21:37.624Z,1020.26
2023-02-06T09:22:37.645Z,1020.30
2023-02-06T09:23:37.633Z,1020.21
2023-02-06T09:24:37.627Z,1020.27
2023-02-06T09:25:37.820Z,1020.25
2023-02-06T09:26:42.625Z,1020.26
2023-02-06T09:27:38.556Z,1020.24
2023-02-06T09:28:37.582Z,1020.23
2023-02-06T09:29:37.537Z,1020.18
2023-02-06T09:30:37.567Z,1020.16
2023-02-06T09:31:37.562Z,1020.19
2023-02-06T09:32:37.552Z,1020.16
2023-02-06T09:33:37.489Z,1020.17
2023-02-06T09:34:37.523Z,1020.21
2023-02-06T09:35:37.772Z,1020.24
2023-02-06T09:36:37.509Z,1020.22
2023-02-06T09:37:37.447Z,1020.27
2023-02-06T09:38:37.437Z,1020.28
2023-02-06T09:39:37.467Z,1020.25
2023-02-06T09:40:37.411Z,1020.28
2023-02-06T09:41:37.394Z,1020.25
2023-02-06T09:42:37.418Z,1020.25
2023-02-06T09:43:37.377Z,1020.30
2023-02-06T09:44:37.421Z,1020.20
2023-02-06T09:45:37.765Z,1020.28
2023-02-06T09:46:37.377Z,1020.26
2023-02-06T09:47:37.344Z,1020.32
2023-02-06T09:48:37.355Z,1020.25
2023-02-06T09:49:37.315Z,1020.25
2023-02-06T09:50:37.307Z,1020.28
2023-02-06T09:51:37.327Z,1020.26
2023-02-06T09:52:37.295Z,1020.26
2023-02-06T09:53:37.296Z,1020.31
2023-02-06T09:54:37.260Z,1020.27
2023-02-06T09:55:37.510Z,1020.27
2023-02-06T09:56:37.264Z,1020.24
2023-02-06T09:57:37.230Z,1020.16
2023-02-06T09:58:37.234Z,1020.17
2023-02-06T09:59:37.239Z,1020.15
2023-02-06T10:00:37.195Z,1020.16
2023-02-06T10:01:37.204Z,1020.17
2023-02-06T10:02:37.174Z,1020.14
2023-02-06T10:03:37.165Z,1020.14
2023-02-06T10:04:37.172Z,1020.15
2023-02-06T10:05:37.521Z,1020.14
2023-02-06T10:06:37.124Z,1020.15
2023-02-06T10:07:37.119Z,1020.14
2023-02-06T10:08:37.164Z,1020.10
2023-02-06T10:09:37.120Z,1020.06
2023-02-06T10:10:37.084Z,1020.05
2023-02-06T10:11:37.077Z,1020.04
2023-02-06T10:12:37.071Z,1019.97
2023-02-06T10:13:37.064Z,1019.94
2023-02-06T10:14:37.064Z,1019.95
2023-02-06T10:15:37.380Z,1019.93
2023-02-06T10:16:37.049Z,1019.89
2023-02-06T10:17:37.004Z,1019.91
2023-02-06T10:18:37.000Z,1019.87
2023-02-06T10:19:37.013Z,1019.83
2023-02-06T10:20:36.988Z,1019.81
2023-02-06T10:21:36.959Z,1019.75
2023-02-06T10:22:36.974Z,1019.72
2023-02-06T10:23:36.949Z,1019.69
2023-02-06T10:24:36.978Z,1019.71
2023-02-06T10:25:37.219Z,1019.64
2023-02-06T10:26:36.902Z,1019.61
2023-02-06T10:27:36.896Z,1019.62
2023-02-06T10:28:36.896Z,1019.59
2023-02-06T10:29:36.871Z,1019.54
2023-02-06T10:30:36.890Z,1019.57
2023-02-06T10:31:36.930Z,1019.60
2023-02-06T10:32:36.843Z,1019.54
2023-02-06T10:33:36.832Z,1019.55
2023-02-06T10:34:36.848Z,1019.55
2023-02-06T10:35:37.190Z,1019.52
2023-02-06T10:36:36.812Z,1019.54
2023-02-06T10:37:36.787Z,1019.67
2023-02-06T10:38:36.772Z,1019.56
2023-02-06T10:39:36.786Z,1019.60
2023-02-06T10:40:36.776Z,1019.58
2023-02-06T10:41:36.744Z,1019.57
2023-02-06T10:42:36.734Z,1019.54
2023-02-06T10:43:36.720Z,1019.60
2023-02-06T10:44:36.733Z,1019.58
2023-02-06T10:45:37.181Z,1019.54
2023-02-06T10:46:36.772Z,1019.57
2023-02-06T10:47:36.690Z,1019.49
2023-02-06T10:48:36.665Z,1019.49
2023-02-06T10:49:36.675Z,1019.42
2023-02-06T10:50:36.643Z,1019.53
2023-02-06T10:51:36.640Z,1019.50
2023-02-06T10:52:36.627Z,1019.43
2023-02-06T10:53:36.644Z,1019.52
2023-02-06T10:54:36.600Z,1019.47
2023-02-06T10:55:36.634Z,1019.57
2023-02-06T10:56:36.681Z,1019.50
2023-02-06T10:57:36.568Z,1019.54
2023-02-06T10:58:36.568Z,1019.53
2023-02-06T10:59:36.559Z,1019.46
2023-02-06T11:00:36.992Z,1019.42
2023-02-06T11:01:36.671Z,1019.46
2023-02-06T11:02:36.534Z,1019.44
2023-02-06T11:03:37.519Z,1019.40
2023-02-06T11:04:36.516Z,1019.33
2023-02-06T11:05:37.004Z,1019.30
2023-02-06T11:06:36.466Z,1019.28
2023-02-06T11:07:36.463Z,1019.29
2023-02-06T11:08:36.466Z,1019.22
2023-02-06T11:09:36.441Z,1019.29
2023-02-06T11:10:36.719Z,1019.34
2023-02-06T11:11:36.460Z,1019.35
2023-02-06T11:12:36.456Z,1019.33
2023-02-06T11:13:36.391Z,1019.36
2023-02-06T11:14:36.383Z,1019.36
2023-02-06T11:15:36.739Z,1019.38
2023-02-06T11:16:36.381Z,1019.39
2023-02-06T11:17:36.374Z,1019.39
2023-02-06T11:18:36.337Z,1019.41
2023-02-06T11:19:36.368Z,1019.42
2023-02-06T11:20:36.738Z,1019.42
2023-02-06T11:21:36.335Z,1019.47
2023-02-06T11:22:51.136Z,1019.51
2023-02-06T11:23:37.279Z,1019.35
2023-02-06T11:24:36.292Z,1019.43
2023-02-06T11:25:36.653Z,1019.40
2023-02-06T11:26:36.246Z,1019.47
2023-02-06T11:27:36.255Z,1019.50
2023-02-06T11:28:36.246Z,1019.40
2023-02-06T11:29:36.225Z,1019.34
2023-02-06T11:30:36.796Z,1019.31
2023-02-06T11:31:36.269Z,1019.35
2023-02-06T11:32:36.214Z,1019.26
2023-02-06T11:33:36.168Z,1019.36
2023-02-06T11:34:36.155Z,1019.27
2023-02-06T11:35:36.622Z,1019.24
2023-02-06T11:36:36.143Z,1019.26
2023-02-06T11:37:36.146Z,1019.22
2023-02-06T11:38:36.108Z,1019.16
2023-02-06T11:39:36.106Z,1019.20
2023-02-06T11:40:36.419Z,1019.21
2023-02-06T11:41:36.101Z,1019.11
2023-02-06T11:42:36.092Z,1019.16
2023-02-06T11:43:36.111Z,1019.13
2023-02-06T11:44:36.059Z,1019.13
2023-02-06T11:45:36.491Z,1019.12
2023-02-06T11:46:36.029Z,1019.14
2023-02-06T11:47:37.770Z,1019.02
2023-02-06T11:48:36.028Z,1019.11
2023-02-06T11:49:36.008Z,1019.09
2023-02-06T11:50:36.316Z,1019.08
2023-02-06T11:51:35.963Z,1019.08
2023-02-06T11:52:35.958Z,1019.11
2023-02-06T11:53:35.997Z,1019.18
2023-02-06T11:54:35.960Z,1019.15
2023-02-06T11:55:36.594Z,1019.10
2023-02-06T11:56:35.909Z,1019.12
2023-02-06T11:57:35.903Z,1019.09
2023-02-06T11:58:35.993Z,1019.14
2023-02-06T11:59:35.893Z,1019.16
2023-02-06T12:00:35.907Z,1019.17
2023-02-06T12:01:35.879Z,1019.14
2023-02-06T12:02:35.985Z,1019.11
2023-02-06T12:03:35.878Z,1019.03
2023-02-06T12:04:35.852Z,1019.02
2023-02-06T12:05:36.183Z,1019.02